Time;durP1;ratioP1;P1;durP2;ratioP2;P2;SDS_P1;SDS_P2;PMS_P1;PMS_P2;Temp;Humidity;BMP_temperature;BMP_pressure;BME280_temperature;BME280_humidity;BME280_pressure;Samples;Min_cycle;Max_cycle;Signal;HPM_P1;HPM_P2
2022/12/06 00:01:06;;;;;;;9.82;3.67;;;5.30;99.90;;;;;;4997480;28;20129;-67
2022/12/06 00:03:33;;;;;;;9.65;3.80;;;5.30;99.90;;;;;;4999321;28;20069;-67
2022/12/06 00:06:07;;;;;;;11.27;4.07;;;5.30;99.90;;;;;;4998121;28;20034;-67
2022/12/06 00:08:34;;;;;;;13.30;4.03;;;5.30;99.90;;;;;;5002230;28;20079;-67
2022/12/06 00:11:17;;;;;;;10.35;4.45;;;5.30;99.90;;;;;;4996713;28;20042;-67
2022/12/06 00:13:44;;;;;;;12.73;4.30;;;5.30;99.90;;;;;;5001191;28;20125;-67
2022/12/06 00:16:13;;;;;;;11.60;4.10;;;5.30;99.90;;;;;;5004101;28;20078;-67
2022/12/06 00:18:40;;;;;;;14.13;4.80;;;5.30;99.90;;;;;;5002213;28;20042;-67
2022/12/06 00:21:10;;;;;;;15.10;4.47;;;5.30;99.90;;;;;;5005110;28;20084;-67
2022/12/06 00:23:37;;;;;;;13.05;4.97;;;5.30;99.90;;;;;;5001189;28;20090;-67
2022/12/06 00:26:04;;;;;;;9.52;4.10;;;5.30;99.90;;;;;;4999720;28;20042;-67
2022/12/06 00:28:31;;;;;;;14.35;4.82;;;5.20;99.90;;;;;;5005069;28;20050;-67
2022/12/06 00:31:01;;;;;;;15.32;4.95;;;5.20;99.90;;;;;;4998047;28;20042;-67
2022/12/06 00:33:27;;;;;;;12.68;5.15;;;5.30;99.90;;;;;;5003365;28;20077;-67
2022/12/06 00:36:00;;;;;;;15.98;5.07;;;5.30;99.90;;;;;;4999213;28;20057;-67
2022/12/06 00:38:27;;;;;;;11.57;4.70;;;5.30;99.90;;;;;;5003939;28;20113;-67
2022/12/06 00:41:07;;;;;;;14.52;5.07;;;5.20;99.90;;;;;;4998725;28;20096;-67
2022/12/06 00:43:33;;;;;;;14.20;4.68;;;5.20;99.90;;;;;;5004996;28;20092;-67
2022/12/06 00:45:59;;;;;;;15.45;5.05;;;5.30;99.90;;;;;;5002098;28;20579;-67
2022/12/06 00:48:25;;;;;;;11.18;4.57;;;5.30;99.90;;;;;;5032427;28;20080;-67
2022/12/06 00:50:51;;;;;;;16.13;5.60;;;5.20;99.90;;;;;;4999158;28;20061;-67
2022/12/06 00:53:17;;;;;;;13.10;5.10;;;5.20;99.90;;;;;;5003897;28;20041;-67
2022/12/06 00:55:44;;;;;;;13.20;5.13;;;5.20;99.90;;;;;;4998982;28;20049;-67
2022/12/06 00:58:10;;;;;;;9.77;4.93;;;5.20;99.90;;;;;;5002461;28;20045;-67
2022/12/06 01:00:36;;;;;;;14.35;5.22;;;5.20;99.90;;;;;;4996296;28;20403;-67
2022/12/06 01:03:02;;;;;;;13.90;4.82;;;5.20;99.90;;;;;;5002761;28;20041;-67
2022/12/06 01:05:28;;;;;;;10.93;4.63;;;5.20;99.90;;;;;;5003328;28;20038;-67
2022/12/06 01:07:54;;;;;;;19.85;4.90;;;5.10;99.90;;;;;;4998230;28;20117;-67
2022/12/06 01:10:20;;;;;;;15.20;5.07;;;5.20;99.90;;;;;;5003557;28;20047;-67
2022/12/06 01:12:46;;;;;;;12.65;4.20;;;5.20;99.90;;;;;;4999419;28;20139;-67
2022/12/06 01:15:12;;;;;;;12.75;4.43;;;5.10;99.90;;;;;;5002163;28;20098;-67
2022/12/06 01:17:38;;;;;;;8.65;4.40;;;5.20;99.90;;;;;;5001322;28;20065;-67
2022/12/06 01:20:05;;;;;;;11.80;4.22;;;5.20;99.90;;;;;;5004472;28;20128;-67
2022/12/06 01:22:31;;;;;;;11.20;4.32;;;5.20;99.90;;;;;;5001151;28;20048;-67
2022/12/06 01:24:56;;;;;;;11.98;3.70;;;5.20;99.90;;;;;;5002912;28;20038;-67
2022/12/06 01:27:22;;;;;;;11.45;3.53;;;5.20;99.90;;;;;;4995489;28;20038;-67
2022/12/06 01:29:48;;;;;;;12.10;3.70;;;5.20;99.90;;;;;;5000204;28;20412;-67
2022/12/06 01:32:14;;;;;;;14.65;4.18;;;5.10;99.90;;;;;;4999891;28;20458;-67
2022/12/06 01:34:40;;;;;;;15.00;3.95;;;5.10;99.90;;;;;;5002229;28;20068;-67
2022/12/06 01:37:05;;;;;;;11.73;4.18;;;5.10;99.90;;;;;;4999790;28;20061;-67
2022/12/06 01:39:31;;;;;;;11.35;3.72;;;5.20;99.90;;;;;;5000347;28;20046;-67
2022/12/06 01:42:16;;;;;;;11.02;3.63;;;5.20;99.90;;;;;;5007201;28;20064;-67
2022/12/06 01:44:56;;;;;;;12.40;3.97;;;5.20;99.90;;;;;;4998034;28;20092;-67
2022/12/06 01:47:33;;;;;;;11.82;4.00;;;5.10;99.90;;;;;;5000546;28;20041;-67
2022/12/06 01:50:39;;;;;;;12.13;4.82;;;5.10;99.90;;;;;;4999698;28;20096;-67
2022/12/06 01:53:07;;;;;;;13.05;3.40;;;5.10;99.90;;;;;;4987243;28;20042;-67
2022/12/06 01:55:36;;;;;;;9.65;3.53;;;5.10;99.90;;;;;;5001256;28;20030;-67
2022/12/06 01:58:09;;;;;;;7.18;3.30;;;5.10;99.90;;;;;;5001194;28;20046;-67
2022/12/06 02:00:35;;;;;;;5.53;2.60;;;5.10;99.90;;;;;;4998153;28;20042;-67
2022/12/06 02:03:03;;;;;;;8.40;2.60;;;5.00;99.90;;;;;;4999375;28;20178;-67
2022/12/06 02:05:29;;;;;;;5.93;3.05;;;5.00;99.90;;;;;;5001679;28;20443;-67
2022/12/06 02:07:56;;;;;;;8.55;3.00;;;5.00;99.90;;;;;;5003716;28;20568;-67
2022/12/06 02:10:22;;;;;;;7.40;2.47;;;4.90;99.90;;;;;;5033180;28;20056;-67
2022/12/06 02:12:53;;;;;;;7.65;2.80;;;5.00;99.90;;;;;;5002133;28;20030;-67
2022/12/06 02:15:25;;;;;;;6.97;2.40;;;5.00;99.90;;;;;;5000099;28;20034;-67
2022/12/06 02:18:04;;;;;;;5.95;2.13;;;5.00;99.90;;;;;;4999339;28;20442;-67
2022/12/06 02:20:35;;;;;;;5.95;2.47;;;5.00;99.90;;;;;;4997626;28;20046;-67
2022/12/06 02:23:30;;;;;;;6.20;2.10;;;4.90;99.90;;;;;;5003822;28;20517;-67
2022/12/06 02:26:16;;;;;;;6.22;2.63;;;4.90;99.90;;;;;;4996189;28;20073;-67
2022/12/06 02:29:07;;;;;;;5.88;2.50;;;4.90;99.90;;;;;;5001102;28;20034;-67
2022/12/06 02:31:38;;;;;;;7.50;2.45;;;4.90;99.90;;;;;;5001609;28;20045;-67
2022/12/06 02:34:36;;;;;;;7.10;2.72;;;4.80;99.90;;;;;;5000275;28;20121;-67
2022/12/06 02:37:09;;;;;;;8.13;3.10;;;4.80;99.90;;;;;;4997543;28;20140;-67
2022/12/06 02:39:50;;;;;;;7.15;3.08;;;4.90;99.90;;;;;;5000890;28;20120;-67
2022/12/06 02:42:18;;;;;;;8.43;3.40;;;4.80;99.90;;;;;;4999928;28;20483;-67
2022/12/06 02:44:57;;;;;;;8.32;3.47;;;4.80;99.90;;;;;;4998739;28;20057;-67
2022/12/06 02:47:31;;;;;;;6.13;3.17;;;4.80;99.90;;;;;;4996900;28;20116;-67
2022/12/06 02:49:57;;;;;;;;;;;4.80;99.90;;;;;;5029577;28;20043;-67
2022/12/06 02:52:26;;;;;;;8.27;3.30;;;4.80;99.90;;;;;;5002818;28;19917;-67
2022/12/06 02:54:55;;;;;;;7.60;3.35;;;4.80;99.90;;;;;;4997486;28;20074;-67
2022/12/06 02:57:33;;;;;;;9.88;4.03;;;4.80;99.90;;;;;;5000434;28;20121;-67
2022/12/06 02:59:59;;;;;;;12.90;4.28;;;4.80;99.90;;;;;;4996392;28;20068;-67
2022/12/06 03:02:25;;;;;;;10.02;4.03;;;4.80;99.90;;;;;;4999227;28;20076;-67
2022/12/06 03:05:00;;;;;;;7.93;4.10;;;4.80;99.90;;;;;;4999599;28;20470;-67
2022/12/06 03:07:43;;;;;;;9.90;4.03;;;4.80;99.90;;;;;;4999171;28;20528;-67
2022/12/06 03:10:29;;;;;;;9.45;4.10;;;4.80;99.90;;;;;;5001676;28;20076;-67
2022/12/06 03:13:07;;;;;;;15.00;3.97;;;4.80;99.90;;;;;;4998015;28;20051;-67
2022/12/06 03:15:55;;;;;;;8.60;3.30;;;4.90;99.90;;;;;;4999398;28;20104;-67
2022/12/06 03:18:33;;;;;;;7.30;3.45;;;4.90;99.90;;;;;;4999366;28;20073;-67
2022/12/06 03:21:12;;;;;;;8.93;3.92;;;4.80;99.90;;;;;;5001001;28;20336;-67
2022/12/06 03:23:44;;;;;;;10.27;3.97;;;4.80;99.90;;;;;;4997537;28;20213;-67
2022/12/06 03:26:13;;;;;;;7.32;3.67;;;4.80;99.90;;;;;;5001622;28;20036;-67
2022/12/06 03:28:41;;;;;;;9.93;3.88;;;4.80;99.90;;;;;;4998385;28;20195;-67
2022/12/06 03:31:11;;;;;;;14.18;4.22;;;4.70;99.90;;;;;;4997977;28;20081;-67
2022/12/06 03:33:42;;;;;;;14.13;4.70;;;4.80;99.90;;;;;;5003831;28;20054;-67
2022/12/06 03:36:10;;;;;;;11.77;3.17;;;4.70;99.90;;;;;;5003028;28;20340;-67
2022/12/06 03:38:58;;;;;;;13.45;4.03;;;4.70;99.90;;;;;;5000538;28;20761;-67
2022/12/06 03:41:35;;;;;;;7.20;3.40;;;4.70;99.90;;;;;;4993605;28;20394;-67
2022/12/06 03:44:01;;;;;;;8.77;3.28;;;4.70;99.90;;;;;;5001651;28;20031;-67
2022/12/06 03:46:32;;;;;;;12.25;3.45;;;4.60;99.90;;;;;;5001249;28;20137;-67
2022/12/06 03:49:02;;;;;;;5.65;3.25;;;4.60;99.90;;;;;;5007022;28;20125;-67
2022/12/06 03:51:31;;;;;;;8.88;3.08;;;4.70;99.90;;;;;;5006271;28;20353;-67
2022/12/06 03:54:00;;;;;;;8.52;2.80;;;4.70;99.90;;;;;;5004395;28;20051;-67
2022/12/06 03:56:26;;;;;;;7.97;3.08;;;4.60;99.90;;;;;;5000502;28;20049;-67
2022/12/06 03:58:52;;;;;;;9.05;3.00;;;4.60;99.90;;;;;;5006786;28;20042;-67
2022/12/06 04:01:18;;;;;;;8.93;3.10;;;4.60;99.90;;;;;;5002209;28;20042;-67
2022/12/06 04:03:44;;;;;;;9.52;2.72;;;4.60;99.90;;;;;;5004292;28;20124;-67
2022/12/06 04:06:10;;;;;;;7.45;3.10;;;4.60;99.90;;;;;;5003615;28;20034;-67
2022/12/06 04:08:38;;;;;;;6.45;2.72;;;4.60;99.90;;;;;;5001042;28;20470;-67
2022/12/06 04:11:03;;;;;;;9.43;3.00;;;4.60;99.90;;;;;;5003645;28;20045;-67
2022/12/06 04:13:30;;;;;;;3.95;2.47;;;4.60;99.90;;;;;;5001131;28;20409;-67
2022/12/06 04:15:58;;;;;;;6.50;2.35;;;4.60;99.90;;;;;;5002607;28;20038;-68
2022/12/06 04:18:25;;;;;;;7.78;2.60;;;4.60;99.90;;;;;;5006762;28;20046;-67
2022/12/06 04:23:38;;;;;;;6.70;2.40;;;4.60;99.90;;;;;;5003361;28;20084;-67
2022/12/06 04:26:06;;;;;;;7.57;2.70;;;4.50;99.90;;;;;;5003996;28;20494;-67
2022/12/06 04:39:30;;;;;;;5.15;2.53;;;4.30;99.90;;;;;;5003854;28;20046;-67
2022/12/06 04:44:41;;;;;;;5.03;2.10;;;4.30;99.90;;;;;;5001729;28;20509;-67
2022/12/06 04:47:07;;;;;;;5.60;2.38;;;4.30;99.90;;;;;;4998430;28;20074;-67
2022/12/06 04:49:34;;;;;;;7.63;2.58;;;4.20;99.90;;;;;;5002342;28;20053;-67
2022/12/06 04:52:00;;;;;;;9.25;2.70;;;4.20;99.90;;;;;;5034910;28;20034;-67
2022/12/06 04:54:26;;;;;;;10.00;2.50;;;4.20;99.90;;;;;;5002970;28;20398;-67
2022/12/06 04:56:52;;;;;;;8.57;2.67;;;4.20;99.90;;;;;;5032421;28;20065;-67
2022/12/06 04:59:18;;;;;;;6.22;2.30;;;4.20;99.90;;;;;;5000645;28;20061;-67
2022/12/06 05:01:43;;;;;;;5.85;2.53;;;4.10;99.90;;;;;;5006245;28;20038;-67
2022/12/06 05:04:09;;;;;;;5.38;2.38;;;4.00;99.90;;;;;;5002018;28;20038;-67
2022/12/06 05:06:35;;;;;;;4.15;2.22;;;4.00;99.90;;;;;;5003351;28;20040;-67
2022/12/06 05:09:02;;;;;;;8.65;2.30;;;4.00;99.90;;;;;;5004749;28;20165;-67
2022/12/06 05:11:27;;;;;;;10.57;2.78;;;3.90;99.90;;;;;;5034250;28;20299;-67
2022/12/06 05:13:53;;;;;;;5.22;2.30;;;3.90;99.90;;;;;;5002400;28;20063;-67
2022/12/06 05:16:19;;;;;;;6.95;2.35;;;3.90;99.90;;;;;;5001966;28;20482;-67
2022/12/06 05:18:44;;;;;;;4.40;2.33;;;3.90;99.90;;;;;;5007168;28;20453;-67
2022/12/06 05:21:16;;;;;;;4.55;2.40;;;3.90;99.90;;;;;;4998580;28;20054;-67
2022/12/06 05:23:42;;;;;;;7.50;2.65;;;3.80;99.90;;;;;;5003078;28;20044;-67
2022/12/06 05:26:15;;;;;;;10.02;2.78;;;3.80;99.90;;;;;;5013965;28;20093;-67
2022/12/06 05:28:41;;;;;;;5.13;2.35;;;3.80;99.90;;;;;;5004706;28;20073;-67
2022/12/06 05:31:07;;;;;;;4.43;2.55;;;3.80;99.90;;;;;;4999902;28;20048;-67
2022/12/06 05:33:34;;;;;;;8.63;2.67;;;3.80;99.90;;;;;;5000153;28;20109;-67
2022/12/06 05:36:05;;;;;;;7.28;2.72;;;3.70;99.90;;;;;;5004345;28;20521;-67
2022/12/06 05:38:32;;;;;;;6.90;2.60;;;3.80;99.90;;;;;;5001798;28;20042;-67
2022/12/06 05:40:58;;;;;;;5.47;2.63;;;3.80;99.90;;;;;;4996811;28;20037;-67
2022/12/06 05:43:23;;;;;;;7.97;2.83;;;3.80;99.90;;;;;;5034813;28;20053;-67
2022/12/06 05:45:52;;;;;;;4.32;2.45;;;3.70;99.90;;;;;;4995242;28;20050;-67
2022/12/06 05:48:18;;;;;;;7.57;2.55;;;3.80;99.90;;;;;;4999824;28;20596;-67
2022/12/06 05:50:46;;;;;;;7.50;2.80;;;3.70;99.90;;;;;;4997330;28;20042;-67
2022/12/06 05:53:12;;;;;;;7.72;2.88;;;3.70;99.90;;;;;;5034873;28;20089;-67
2022/12/06 05:55:38;;;;;;;6.05;2.40;;;3.70;99.90;;;;;;4997263;28;20630;-67
2022/12/06 05:58:04;;;;;;;7.43;2.90;;;3.70;99.90;;;;;;5001007;28;20048;-67
2022/12/06 06:00:29;;;;;;;5.25;2.60;;;3.80;99.90;;;;;;4996665;28;20458;-67
2022/12/06 06:02:55;;;;;;;6.22;2.50;;;3.70;99.90;;;;;;4995584;28;20949;-67
2022/12/06 06:05:21;;;;;;;5.10;2.47;;;3.60;99.90;;;;;;4999460;28;20121;-67
2022/12/06 06:07:46;;;;;;;7.50;2.50;;;3.60;99.90;;;;;;5001569;28;20039;-67
2022/12/06 06:10:14;;;;;;;6.75;2.63;;;3.60;99.90;;;;;;5006236;28;20422;-67
2022/12/06 06:12:40;;;;;;;5.05;2.08;;;3.60;99.90;;;;;;4996844;28;20048;-67
2022/12/06 06:15:06;;;;;;;5.10;2.60;;;3.70;99.90;;;;;;5001191;28;20050;-67
2022/12/06 06:17:33;;;;;;;6.38;2.80;;;3.70;99.90;;;;;;4995965;28;20065;-67
2022/12/06 06:20:04;;;;;;;6.32;2.92;;;3.70;99.90;;;;;;4996210;28;20125;-67
2022/12/06 06:22:31;;;;;;;8.20;2.83;;;3.70;99.90;;;;;;4999302;28;20049;-67
2022/12/06 06:24:57;;;;;;;9.13;3.10;;;3.70;99.90;;;;;;4995605;28;20049;-67
2022/12/06 06:27:23;;;;;;;8.43;2.90;;;3.60;99.90;;;;;;4993430;28;20397;-67
2022/12/06 06:29:48;;;;;;;5.20;2.80;;;3.60;99.90;;;;;;4998085;28;20046;-67
2022/12/06 06:32:14;;;;;;;5.47;2.95;;;3.60;99.90;;;;;;4997584;28;20077;-67
2022/12/06 06:34:40;;;;;;;7.95;3.00;;;3.50;99.90;;;;;;5001398;28;20474;-67
2022/12/06 06:37:06;;;;;;;5.75;3.40;;;3.50;99.90;;;;;;4995927;28;20052;-67
2022/12/06 06:39:31;;;;;;;6.22;3.38;;;3.60;99.90;;;;;;4995341;28;20103;-67
2022/12/06 06:41:57;;;;;;;6.03;2.95;;;3.50;99.90;;;;;;5000303;28;20050;-67
2022/12/06 06:44:23;;;;;;;7.50;3.00;;;3.50;99.90;;;;;;4995407;28;20045;-67
2022/12/06 06:46:49;;;;;;;9.10;2.95;;;3.40;99.90;;;;;;4993119;28;20050;-67
2022/12/06 06:49:16;;;;;;;6.95;3.05;;;3.30;99.90;;;;;;4992931;28;20045;-67
2022/12/06 06:51:42;;;;;;;6.32;2.83;;;3.30;99.90;;;;;;4997964;28;20128;-67
2022/12/06 06:54:08;;;;;;;7.15;2.70;;;3.30;99.90;;;;;;4993228;28;20081;-67
2022/12/06 06:56:33;;;;;;;4.97;3.03;;;3.20;99.90;;;;;;4993380;28;20121;-67
2022/12/06 06:58:59;;;;;;;5.63;3.33;;;3.10;99.90;;;;;;4993291;28;20338;-67
2022/12/06 07:01:26;;;;;;;3.83;2.63;;;3.10;99.90;;;;;;4993121;28;20045;-67
2022/12/06 07:03:52;;;;;;;6.55;3.05;;;3.00;99.90;;;;;;4993663;28;20124;-67
2022/12/06 07:06:18;;;;;;;7.15;3.38;;;2.90;99.90;;;;;;4994020;28;20110;-67
2022/12/06 07:08:45;;;;;;;5.43;2.97;;;2.80;99.90;;;;;;4996116;28;20033;-67
2022/12/06 07:11:12;;;;;;;5.63;3.00;;;2.70;99.90;;;;;;5025232;28;20041;-66
2022/12/06 07:13:39;;;;;;;6.97;3.08;;;2.70;99.90;;;;;;4993828;28;20065;-67
2022/12/06 07:16:07;;;;;;;12.13;3.40;;;2.60;99.90;;;;;;4995156;28;20034;-66
2022/12/06 07:18:33;;;;;;;9.05;3.45;;;2.60;99.90;;;;;;4988059;28;20426;-66
2022/12/06 07:21:02;;;;;;;8.00;4.18;;;2.50;99.90;;;;;;4995452;28;20438;-66
2022/12/06 07:23:29;;;;;;;6.95;3.78;;;2.50;99.90;;;;;;4995102;28;20455;-66
2022/12/06 07:26:07;;;;;;;5.95;3.53;;;2.50;99.90;;;;;;4993295;28;20487;-66
2022/12/06 07:28:40;;;;;;;5.78;3.35;;;2.40;99.90;;;;;;4995020;28;20046;-66
2022/12/06 07:31:14;;;;;;;11.13;3.65;;;2.30;99.90;;;;;;4997818;28;20090;-66
2022/12/06 07:33:41;;;;;;;;;;;2.30;99.90;;;;;;4990965;28;20506;-66
2022/12/06 07:36:08;;;;;;;6.32;3.80;;;2.20;99.90;;;;;;4987882;28;20333;-66
2022/12/06 07:38:34;;;;;;;9.57;3.25;;;2.10;99.90;;;;;;4997543;28;20546;-66
2022/12/06 07:46:43;;;;;;;8.25;3.55;;;2.10;99.90;;;;;;4994248;28;20549;-65
2022/12/06 07:49:10;;;;;;;10.13;3.97;;;2.00;99.90;;;;;;4995649;28;20111;-65
2022/12/06 07:51:36;;;;;;;11.63;4.15;;;2.00;99.90;;;;;;4993412;28;20041;-65
2022/12/06 07:54:02;;;;;;;9.13;3.75;;;2.00;99.90;;;;;;4994124;28;20184;-65
2022/12/06 07:56:28;;;;;;;6.40;3.90;;;2.00;99.90;;;;;;4991282;28;20695;-65
2022/12/06 07:58:54;;;;;;;7.50;3.45;;;2.00;99.90;;;;;;4999736;28;20125;-65
2022/12/06 08:01:19;;;;;;;12.73;4.20;;;2.00;99.90;;;;;;4990941;28;20039;-65
2022/12/06 08:03:45;;;;;;;9.95;4.30;;;2.00;99.90;;;;;;4998206;28;20092;-65
2022/12/06 08:06:11;;;;;;;10.57;4.03;;;2.00;99.90;;;;;;5000659;28;20415;-65
2022/12/06 08:08:37;;;;;;;8.32;4.18;;;2.00;99.90;;;;;;4996624;28;20038;-66
2022/12/06 08:11:05;;;;;;;10.68;4.60;;;2.10;99.90;;;;;;4999565;28;20129;-66
2022/12/06 08:13:32;;;;;;;7.20;4.25;;;2.00;99.90;;;;;;4999332;28;20046;-66
2022/12/06 08:15:58;;;;;;;8.07;4.18;;;2.00;99.90;;;;;;5002848;28;20041;-66
2022/12/06 08:18:24;;;;;;;9.60;4.53;;;2.10;99.90;;;;;;5003971;28;20120;-66
2022/12/06 08:20:51;;;;;;;10.73;3.90;;;2.10;99.90;;;;;;4999684;28;20049;-66
2022/12/06 08:23:18;;;;;;;9.63;4.43;;;2.20;99.90;;;;;;4996352;28;20049;-65
2022/12/06 08:25:44;;;;;;;10.07;5.03;;;2.30;99.90;;;;;;4997167;28;20461;-66
2022/12/06 08:28:10;;;;;;;12.93;5.22;;;2.40;99.90;;;;;;5006406;28;20041;-66
2022/12/06 08:30:41;;;;;;;14.20;4.68;;;2.50;99.90;;;;;;4999852;28;20419;-66
2022/12/06 08:33:07;;;;;;;12.88;4.13;;;2.60;99.90;;;;;;5020990;28;20076;-66
2022/12/06 08:35:36;;;;;;;10.52;4.68;;;2.80;99.90;;;;;;5007064;28;20034;-66
2022/12/06 08:38:02;;;;;;;15.32;5.03;;;2.80;99.90;;;;;;5004295;28;20122;-66
2022/12/06 08:40:27;;;;;;;15.10;4.93;;;2.90;99.90;;;;;;5005904;28;20533;-66
2022/12/06 08:42:53;;;;;;;8.93;4.43;;;2.90;99.90;;;;;;5003629;28;20100;-66
2022/12/06 08:45:19;;;;;;;28.92;6.55;;;3.10;99.90;;;;;;5005130;28;20038;-66
2022/12/06 08:47:44;;;;;;;15.18;4.60;;;3.30;99.90;;;;;;5001645;28;20107;-66
2022/12/06 08:50:10;;;;;;;8.52;4.63;;;3.40;99.90;;;;;;5004436;28;20050;-66
2022/12/06 08:52:36;;;;;;;8.23;4.32;;;3.50;99.90;;;;;;4999951;28;20042;-66
2022/12/06 08:55:02;;;;;;;8.35;4.90;;;3.70;99.90;;;;;;5003595;28;20046;-66
2022/12/06 08:57:27;;;;;;;7.82;4.43;;;3.80;99.90;;;;;;5004295;28;20044;-66
2022/12/06 08:59:54;;;;;;;6.78;4.07;;;3.90;99.90;;;;;;4999212;28;20058;-67
2022/12/06 09:02:20;;;;;;;5.28;3.78;;;4.00;99.90;;;;;;5005637;28;20446;-67
2022/12/06 09:04:48;;;;;;;6.47;4.40;;;4.00;99.90;;;;;;5003456;28;20034;-67
2022/12/06 09:07:14;;;;;;;9.52;4.35;;;4.10;99.90;;;;;;5006142;28;20456;-67
2022/12/06 09:09:40;;;;;;;5.65;4.03;;;4.20;99.90;;;;;;5003900;28;20034;-67
2022/12/06 09:12:05;;;;;;;9.25;4.68;;;4.30;99.90;;;;;;5000787;28;20042;-67
2022/12/06 09:14:31;;;;;;;9.52;4.00;;;4.30;99.90;;;;;;5004389;28;20486;-66
2022/12/06 09:16:57;;;;;;;8.27;4.18;;;4.30;99.90;;;;;;5004306;28;20044;-67
2022/12/06 09:19:23;;;;;;;7.05;3.70;;;4.40;99.90;;;;;;5003893;28;20454;-67
2022/12/06 09:21:48;;;;;;;4.95;3.63;;;4.30;99.90;;;;;;5002286;28;20042;-67
2022/12/06 09:24:16;;;;;;;7.95;4.85;;;4.40;99.90;;;;;;5004211;28;20256;-67
2022/12/06 09:26:43;;;;;;;8.35;3.95;;;4.50;99.90;;;;;;5000221;28;20038;-67
2022/12/06 09:29:09;;;;;;;9.93;4.80;;;4.60;99.90;;;;;;5002029;28;20038;-67
2022/12/06 09:31:39;;;;;;;7.03;3.85;;;4.70;99.90;;;;;;5002956;28;20083;-67
2022/12/06 09:34:09;;;;;;;7.78;3.28;;;4.70;99.90;;;;;;5002898;28;20567;-67
2022/12/06 09:36:42;;;;;;;8.63;5.18;;;4.70;99.90;;;;;;5031903;28;20034;-67
2022/12/06 09:39:29;;;;;;;7.82;3.90;;;4.80;99.90;;;;;;4998736;28;20125;-67
2022/12/06 09:41:54;;;;;;;7.43;3.97;;;4.80;99.90;;;;;;5015323;28;20046;-67
2022/12/06 09:44:31;;;;;;;4.82;3.35;;;4.80;99.90;;;;;;4997904;28;20030;-67
2022/12/06 09:47:14;;;;;;;6.93;3.60;;;4.80;99.90;;;;;;4994849;28;20077;-66
2022/12/06 09:49:56;;;;;;;4.47;3.38;;;4.80;99.90;;;;;;4997577;28;20460;-67
2022/12/06 09:52:51;;;;;;;5.20;3.15;;;4.80;99.90;;;;;;4998039;28;20073;-66
2022/12/06 09:55:24;;;;;;;6.53;3.30;;;4.80;99.90;;;;;;4980289;28;20109;-67
2022/12/06 09:57:58;;;;;;;5.75;3.60;;;4.90;99.90;;;;;;5001360;28;20049;-67
2022/12/06 10:00:27;;;;;;;7.72;3.55;;;4.90;99.90;;;;;;4999959;28;20040;-66
2022/12/06 10:03:05;;;;;;;7.50;3.83;;;4.90;99.90;;;;;;4993908;28;20137;-67
2022/12/06 10:05:36;;;;;;;6.75;3.45;;;4.90;99.90;;;;;;5000397;28;20034;-67
2022/12/06 10:08:08;;;;;;;5.80;3.20;;;4.90;99.90;;;;;;5001429;28;20195;-67
2022/12/06 10:10:43;;;;;;;6.90;3.08;;;4.90;99.90;;;;;;4997418;28;20068;-67
2022/12/06 10:13:32;;;;;;;6.93;3.63;;;4.90;99.90;;;;;;5002197;28;20112;-67
2022/12/06 10:16:12;;;;;;;8.65;3.70;;;5.00;99.90;;;;;;5002752;28;20108;-67
2022/12/06 10:19:02;;;;;;;4.72;3.30;;;5.10;99.90;;;;;;4999855;28;20068;-67
2022/12/06 10:21:52;;;;;;;8.25;3.38;;;5.10;99.90;;;;;;5001378;28;20053;-67
2022/12/06 10:24:29;;;;;;;6.88;3.35;;;5.20;99.90;;;;;;5000694;28;20505;-67
2022/12/06 10:27:09;;;;;;;5.78;2.83;;;5.30;99.90;;;;;;4998223;28;20049;-67
2022/12/06 10:30:16;;;;;;;5.50;2.95;;;5.40;99.90;;;;;;5007498;28;20088;-67
2022/12/06 10:33:11;;;;;;;6.70;3.13;;;5.50;99.90;;;;;;5000569;28;20053;-67
2022/12/06 10:35:42;;;;;;;3.92;2.15;;;5.60;99.90;;;;;;4997165;28;20098;-67
2022/12/06 10:38:21;;;;;;;4.80;2.40;;;5.60;99.90;;;;;;4998949;28;20475;-67
2022/12/06 10:41:06;;;;;;;4.80;2.60;;;5.50;99.90;;;;;;5003806;28;20044;-67
2022/12/06 10:44:05;;;;;;;4.13;2.47;;;5.40;99.90;;;;;;4999319;28;20077;-67
2022/12/06 10:47:03;;;;;;;5.35;2.03;;;5.40;99.90;;;;;;5000448;28;20058;-66
2022/12/06 10:49:38;;;;;;;8.30;2.50;;;5.30;99.90;;;;;;4998064;28;20054;-67
2022/12/06 10:52:19;;;;;;;3.95;2.17;;;5.40;99.90;;;;;;5030654;28;20381;-67
2022/12/06 10:54:54;;;;;;;5.68;2.42;;;5.50;99.90;;;;;;5032707;28;20054;-67
2022/12/06 10:57:41;;;;;;;5.72;2.40;;;5.80;99.90;;;;;;5028460;28;20459;-67
2022/12/06 11:00:22;;;;;;;7.45;2.97;;;5.90;99.90;;;;;;4996975;28;20394;-67
2022/12/06 11:03:05;;;;;;;3.55;2.42;;;6.00;99.90;;;;;;5003216;28;20435;-67
2022/12/06 11:05:38;;;;;;;3.30;2.33;;;6.10;99.90;;;;;;5000827;28;20053;-67
2022/12/06 11:08:18;;;;;;;6.97;2.50;;;6.20;99.90;;;;;;5002592;28;20572;-67
2022/12/06 11:10:45;;;;;;;6.50;2.22;;;6.20;99.90;;;;;;4996113;28;20156;-67
2022/12/06 11:13:32;;;;;;;6.00;2.25;;;6.20;99.90;;;;;;5001536;28;20038;-67
2022/12/06 11:16:02;;;;;;;4.63;2.28;;;6.20;99.90;;;;;;5002535;28;20611;-67
2022/12/06 11:18:29;;;;;;;5.03;2.55;;;6.20;99.90;;;;;;4997157;28;20050;-67
2022/12/06 11:21:25;;;;;;;3.05;1.92;;;6.10;99.90;;;;;;4999896;28;20041;-67
2022/12/06 11:23:54;;;;;;;3.33;1.95;;;6.20;99.90;;;;;;4997011;28;20039;-66
2022/12/06 11:26:42;;;;;;;4.60;2.25;;;6.20;99.90;;;;;;5000652;28;20509;-67
2022/12/06 11:29:11;;;;;;;3.17;1.75;;;6.30;99.90;;;;;;4999488;28;20591;-67
2022/12/06 11:32:01;;;;;;;6.60;2.10;;;6.40;99.90;;;;;;4998960;28;20096;-67
2022/12/06 11:34:50;;;;;;;5.68;3.22;;;6.40;99.90;;;;;;4997572;28;20514;-67
2022/12/06 11:37:22;;;;;;;9.18;1.98;;;6.50;99.90;;;;;;5001652;28;20057;-67
2022/12/06 11:39:52;;;;;;;4.82;2.05;;;6.50;99.90;;;;;;4997061;28;20446;-67
2022/12/06 11:42:25;;;;;;;3.42;1.50;;;6.60;99.90;;;;;;5003461;28;20108;-67
2022/12/06 11:44:59;;;;;;;5.95;2.08;;;6.60;99.90;;;;;;4998777;28;20046;-67
2022/12/06 11:47:25;;;;;;;2.90;1.50;;;6.70;99.90;;;;;;5030385;28;20058;-67
2022/12/06 11:49:54;;;;;;;3.03;1.60;;;6.70;99.90;;;;;;4998558;28;20281;-67
2022/12/06 11:52:35;;;;;;;2.78;1.67;;;6.70;99.90;;;;;;4998311;28;20167;-67
2022/12/06 11:55:14;;;;;;;4.97;2.00;;;6.60;99.90;;;;;;4994138;28;20123;-67
2022/12/06 11:57:46;;;;;;;2.65;1.65;;;6.70;99.90;;;;;;5026438;28;20375;-67
2022/12/06 12:00:18;;;;;;;4.25;1.67;;;6.70;99.90;;;;;;4998603;28;20490;-67
2022/12/06 12:02:45;;;;;;;4.82;1.30;;;6.70;99.90;;;;;;5002631;28;20549;-67
2022/12/06 12:05:19;;;;;;;5.65;1.70;;;6.70;99.90;;;;;;4999042;28;20149;-67
2022/12/06 12:07:49;;;;;;;2.90;1.60;;;6.80;99.90;;;;;;4998390;28;20046;-67
2022/12/06 12:10:26;;;;;;;4.90;1.60;;;6.80;99.90;;;;;;5001758;28;20054;-67
2022/12/06 12:15:55;;;;;;;4.25;1.65;;;6.80;99.90;;;;;;4968975;28;20542;-67
2022/12/06 12:18:34;;;;;;;2.55;1.17;;;6.80;99.90;;;;;;4999531;28;20049;-67
2022/12/06 12:21:01;;;;;;;5.00;1.30;;;6.90;99.90;;;;;;4997445;28;20038;-67
2022/12/06 12:23:31;;;;;;;4.72;1.20;;;6.90;99.90;;;;;;5002761;28;20030;-67
2022/12/06 12:26:00;;;;;;;3.88;1.23;;;7.00;99.90;;;;;;4998885;28;20092;-67
2022/12/06 12:28:31;;;;;;;5.80;1.40;;;6.90;99.90;;;;;;5002506;28;20046;-67
2022/12/06 12:31:22;;;;;;;4.28;1.20;;;6.90;99.90;;;;;;4996689;28;20046;-67
2022/12/06 12:33:48;;;;;;;4.43;1.60;;;6.90;99.90;;;;;;4994143;28;20050;-67
2022/12/06 12:36:27;;;;;;;3.20;1.70;;;6.90;99.90;;;;;;5000334;28;20050;-67
2022/12/06 12:38:56;;;;;;;2.97;1.10;;;6.90;99.90;;;;;;5003134;28;20065;-67
2022/12/06 12:41:44;;;;;;;2.83;1.30;;;6.90;99.90;;;;;;4997620;28;20056;-67
2022/12/06 12:44:25;;;;;;;4.72;1.50;;;7.00;99.90;;;;;;4990554;28;20057;-67
2022/12/06 12:47:02;;;;;;;4.80;1.65;;;6.90;99.90;;;;;;5002292;28;20057;-67
2022/12/06 12:49:37;;;;;;;3.50;1.30;;;6.90;99.90;;;;;;5002509;28;20117;-67
2022/12/06 12:52:26;;;;;;;4.15;1.40;;;6.90;99.90;;;;;;5001722;28;20108;-67
2022/12/06 12:55:06;;;;;;;2.63;1.38;;;7.00;99.90;;;;;;4999543;28;20038;-67
2022/12/06 12:57:32;;;;;;;5.72;1.58;;;7.00;99.90;;;;;;5001665;28;20042;-67
2022/12/06 12:59:58;;;;;;;5.05;1.65;;;6.90;99.90;;;;;;5001769;28;20089;-67
2022/12/06 13:02:29;;;;;;;5.07;1.42;;;6.90;99.90;;;;;;5002245;28;20040;-67
2022/12/06 13:05:09;;;;;;;2.97;1.40;;;7.00;99.90;;;;;;5036880;28;20034;-67
2022/12/06 13:07:38;;;;;;;2.95;1.00;;;7.00;99.90;;;;;;5004442;28;20069;-67
2022/12/06 13:10:11;;;;;;;3.65;1.75;;;7.00;99.90;;;;;;5003570;28;20157;-67
2022/12/06 13:12:39;;;;;;;4.72;1.42;;;6.90;99.90;;;;;;5001207;28;20072;-67
2022/12/06 13:15:07;;;;;;;3.50;1.48;;;6.90;99.90;;;;;;5007947;28;20052;-67
2022/12/06 13:17:35;;;;;;;4.68;1.67;;;6.90;99.90;;;;;;4997055;28;20137;-67
2022/12/06 13:20:02;;;;;;;3.28;1.30;;;6.90;99.90;;;;;;5001683;28;20117;-67
2022/12/06 13:22:34;;;;;;;4.22;1.42;;;6.90;99.90;;;;;;5007726;28;21156;-67
2022/12/06 13:25:04;;;;;;;4.82;1.30;;;6.90;99.90;;;;;;5003185;28;20037;-67
2022/12/06 13:27:41;;;;;;;4.93;1.50;;;6.90;99.90;;;;;;5032747;28;20398;-67
2022/12/06 13:30:16;;;;;;;3.47;1.05;;;6.80;99.90;;;;;;4999857;28;20045;-67
2022/12/06 13:32:47;;;;;;;;;;;6.90;99.90;;;;;;5001092;28;20030;-67
2022/12/06 13:35:19;;;;;;;3.28;1.13;;;6.80;99.90;;;;;;5003524;28;19924;-67
2022/12/06 13:38:00;;;;;;;4.38;1.40;;;6.80;99.90;;;;;;5002880;28;20121;-67
2022/12/06 13:40:31;;;;;;;4.30;1.27;;;6.80;99.90;;;;;;5001295;28;20136;-67